sensor_id;sensor_type;location;lat;lon;timestamp;temperature;humidity
26304;DHT22;70693;48.680;8.890;2024-01-30T00:01:42;15.20;85.10
26304;DHT22;70693;48.680;8.890;2024-01-30T00:04:08;15.30;85.20
26304;DHT22;70693;48.680;8.890;2024-01-30T00:06:33;15.20;85.10
26304;DHT22;70693;48.680;8.890;2024-01-30T00:08:59;15.20;85.90
26304;DHT22;70693;48.680;8.890;2024-01-30T00:11:25;15.20;85.20
26304;DHT22;70693;48.680;8.890;2024-01-30T00:13:54;15.20;85.10
26304;DHT22;70693;48.680;8.890;2024-01-30T00:16:23;15.20;85.20
26304;DHT22;70693;48.680;8.890;2024-01-30T00:18:52;15.20;85.10
26304;DHT22;70693;48.680;8.890;2024-01-30T00:21:19;15.20;85.20
26304;DHT22;70693;48.680;8.890;2024-01-30T00:23:44;15.20;85.20
26304;DHT22;70693;48.680;8.890;2024-01-30T00:26:10;15.10;85.10
26304;DHT22;70693;48.680;8.890;2024-01-30T00:28:37;15.00;85.10
26304;DHT22;70693;48.680;8.890;2024-01-30T00:31:03;15.00;85.10
26304;DHT22;70693;48.680;8.890;2024-01-30T00:33:29;15.00;85.20
26304;DHT22;70693;48.680;8.890;2024-01-30T00:35:54;14.90;85.20
26304;DHT22;70693;48.680;8.890;2024-01-30T00:38:20;14.80;86.00
26304;DHT22;70693;48.680;8.890;2024-01-30T00:40:45;14.80;85.50
26304;DHT22;70693;48.680;8.890;2024-01-30T00:43:11;14.70;85.60
26304;DHT22;70693;48.680;8.890;2024-01-30T00:45:37;14.70;85.80
26304;DHT22;70693;48.680;8.890;2024-01-30T00:48:02;14.50;85.90
26304;DHT22;70693;48.680;8.890;2024-01-30T00:50:28;14.50;86.10
26304;DHT22;70693;48.680;8.890;2024-01-30T00:52:54;14.40;86.30
26304;DHT22;70693;48.680;8.890;2024-01-30T00:55:19;14.30;86.50
26304;DHT22;70693;48.680;8.890;2024-01-30T00:57:45;14.20;86.70
26304;DHT22;70693;48.680;8.890;2024-01-30T01:00:11;14.10;86.90
26304;DHT22;70693;48.680;8.890;2024-01-30T01:02:38;14.00;87.10
26304;DHT22;70693;48.680;8.890;2024-01-30T01:05:05;13.90;87.30
26304;DHT22;70693;48.680;8.890;2024-01-30T01:07:30;13.90;87.60
26304;DHT22;70693;48.680;8.890;2024-01-30T01:09:56;13.80;87.80
26304;DHT22;70693;48.680;8.890;2024-01-30T01:12:22;13.70;88.00
26304;DHT22;70693;48.680;8.890;2024-01-30T01:14:48;13.60;88.30
26304;DHT22;70693;48.680;8.890;2024-01-30T01:17:13;13.50;88.50
26304;DHT22;70693;48.680;8.890;2024-01-30T01:19:39;13.40;88.80
26304;DHT22;70693;48.680;8.890;2024-01-30T01:22:05;13.30;89.00
26304;DHT22;70693;48.680;8.890;2024-01-30T01:24:33;13.20;89.10
26304;DHT22;70693;48.680;8.890;2024-01-30T01:26:59;13.20;89.40
26304;DHT22;70693;48.680;8.890;2024-01-30T01:29:26;13.10;89.60
26304;DHT22;70693;48.680;8.890;2024-01-30T01:31:57;13.10;89.90
26304;DHT22;70693;48.680;8.890;2024-01-30T01:34:23;12.90;90.00
26304;DHT22;70693;48.680;8.890;2024-01-30T01:36:49;12.90;90.10
26304;DHT22;70693;48.680;8.890;2024-01-30T01:39:15;12.80;90.10
26304;DHT22;70693;48.680;8.890;2024-01-30T01:41:41;12.80;90.30
26304;DHT22;70693;48.680;8.890;2024-01-30T01:44:07;12.70;90.30
26304;DHT22;70693;48.680;8.890;2024-01-30T01:46:34;12.60;90.40
26304;DHT22;70693;48.680;8.890;2024-01-30T01:49:04;12.60;90.50
26304;DHT22;70693;48.680;8.890;2024-01-30T01:51:31;12.50;90.60
26304;DHT22;70693;48.680;8.890;2024-01-30T01:54:01;12.40;90.70
26304;DHT22;70693;48.680;8.890;2024-01-30T01:56:28;12.40;90.70
26304;DHT22;70693;48.680;8.890;2024-01-30T01:58:55;12.30;90.80
26304;DHT22;70693;48.680;8.890;2024-01-30T02:01:21;12.30;90.90
26304;DHT22;70693;48.680;8.890;2024-01-30T02:03:47;12.20;91.00
26304;DHT22;70693;48.680;8.890;2024-01-30T02:06:16;12.20;91.10
26304;DHT22;70693;48.680;8.890;2024-01-30T02:08:42;12.10;91.10
26304;DHT22;70693;48.680;8.890;2024-01-30T02:11:08;12.10;91.20
26304;DHT22;70693;48.680;8.890;2024-01-30T02:13:36;12.00;91.20
26304;DHT22;70693;48.680;8.890;2024-01-30T02:16:01;12.00;91.30
26304;DHT22;70693;48.680;8.890;2024-01-30T02:18:27;11.90;91.40
26304;DHT22;70693;48.680;8.890;2024-01-30T02:20:54;11.90;91.40
26304;DHT22;70693;48.680;8.890;2024-01-30T02:23:24;11.90;91.50
26304;DHT22;70693;48.680;8.890;2024-01-30T02:25:53;11.80;91.60
26304;DHT22;70693;48.680;8.890;2024-01-30T02:28:19;11.70;91.60
26304;DHT22;70693;48.680;8.890;2024-01-30T02:30:46;11.70;91.70
26304;DHT22;70693;48.680;8.890;2024-01-30T02:33:12;11.70;91.70
26304;DHT22;70693;48.680;8.890;2024-01-30T02:35:37;11.60;91.80
26304;DHT22;70693;48.680;8.890;2024-01-30T02:38:03;11.60;91.90
26304;DHT22;70693;48.680;8.890;2024-01-30T02:40:29;11.60;91.90
26304;DHT22;70693;48.680;8.890;2024-01-30T02:42:56;11.50;92.00
26304;DHT22;70693;48.680;8.890;2024-01-30T02:45:21;11.50;92.00
26304;DHT22;70693;48.680;8.890;2024-01-30T02:47:47;11.40;92.00
26304;DHT22;70693;48.680;8.890;2024-01-30T02:50:13;11.40;92.10
26304;DHT22;70693;48.680;8.890;2024-01-30T02:52:40;11.40;92.20
26304;DHT22;70693;48.680;8.890;2024-01-30T02:55:06;11.40;92.20
26304;DHT22;70693;48.680;8.890;2024-01-30T02:57:32;11.30;92.20
26304;DHT22;70693;48.680;8.890;2024-01-30T02:59:57;11.20;92.30
26304;DHT22;70693;48.680;8.890;2024-01-30T03:02:23;11.20;92.30
26304;DHT22;70693;48.680;8.890;2024-01-30T03:04:49;11.20;92.40
26304;DHT22;70693;48.680;8.890;2024-01-30T03:07:14;11.20;92.40
26304;DHT22;70693;48.680;8.890;2024-01-30T03:09:42;11.20;92.50
26304;DHT22;70693;48.680;8.890;2024-01-30T03:12:10;11.10;92.50
26304;DHT22;70693;48.680;8.890;2024-01-30T03:14:36;11.10;92.50
26304;DHT22;70693;48.680;8.890;2024-01-30T03:17:02;11.00;92.60
26304;DHT22;70693;48.680;8.890;2024-01-30T03:19:28;11.10;92.60
26304;DHT22;70693;48.680;8.890;2024-01-30T03:21:53;11.00;92.60
26304;DHT22;70693;48.680;8.890;2024-01-30T03:24:19;11.00;92.70
26304;DHT22;70693;48.680;8.890;2024-01-30T03:26:45;11.00;92.70
26304;DHT22;70693;48.680;8.890;2024-01-30T03:29:10;11.00;92.80
26304;DHT22;70693;48.680;8.890;2024-01-30T03:31:36;10.90;92.80
26304;DHT22;70693;48.680;8.890;2024-01-30T03:34:02;10.90;92.80
26304;DHT22;70693;48.680;8.890;2024-01-30T03:36:27;10.90;92.80
26304;DHT22;70693;48.680;8.890;2024-01-30T03:38:53;10.90;92.90
26304;DHT22;70693;48.680;8.890;2024-01-30T03:41:19;10.80;92.90
26304;DHT22;70693;48.680;8.890;2024-01-30T03:43:44;10.80;93.00
26304;DHT22;70693;48.680;8.890;2024-01-30T03:46:12;10.80;93.00
26304;DHT22;70693;48.680;8.890;2024-01-30T03:48:38;10.70;93.00
26304;DHT22;70693;48.680;8.890;2024-01-30T03:51:05;10.80;93.10
26304;DHT22;70693;48.680;8.890;2024-01-30T03:53:31;10.70;93.10
26304;DHT22;70693;48.680;8.890;2024-01-30T03:55:57;10.70;93.10
26304;DHT22;70693;48.680;8.890;2024-01-30T03:58:22;10.70;93.10
26304;DHT22;70693;48.680;8.890;2024-01-30T04:00:48;10.70;93.20
26304;DHT22;70693;48.680;8.890;2024-01-30T04:03:17;10.60;93.20
26304;DHT22;70693;48.680;8.890;2024-01-30T04:05:43;10.60;93.20
26304;DHT22;70693;48.680;8.890;2024-01-30T04:08:09;10.60;93.20
26304;DHT22;70693;48.680;8.890;2024-01-30T04:10:34;10.60;93.30
26304;DHT22;70693;48.680;8.890;2024-01-30T04:13:00;10.60;93.30
26304;DHT22;70693;48.680;8.890;2024-01-30T04:15:26;10.50;93.30
26304;DHT22;70693;48.680;8.890;2024-01-30T04:17:52;10.50;93.30
26304;DHT22;70693;48.680;8.890;2024-01-30T04:20:18;10.50;93.30
26304;DHT22;70693;48.680;8.890;2024-01-30T04:22:44;10.50;93.30
26304;DHT22;70693;48.680;8.890;2024-01-30T04:25:11;10.50;93.40
26304;DHT22;70693;48.680;8.890;2024-01-30T04:27:37;10.50;93.40
26304;DHT22;70693;48.680;8.890;2024-01-30T04:30:04;10.40;93.40
26304;DHT22;70693;48.680;8.890;2024-01-30T04:32:30;10.40;93.50
26304;DHT22;70693;48.680;8.890;2024-01-30T04:34:56;10.40;93.50
26304;DHT22;70693;48.680;8.890;2024-01-30T04:37:21;10.40;93.50
26304;DHT22;70693;48.680;8.890;2024-01-30T04:39:47;10.40;93.50
26304;DHT22;70693;48.680;8.890;2024-01-30T04:42:12;10.30;93.50
26304;DHT22;70693;48.680;8.890;2024-01-30T04:44:38;10.40;93.60
26304;DHT22;70693;48.680;8.890;2024-01-30T04:47:04;10.30;93.60
26304;DHT22;70693;48.680;8.890;2024-01-30T04:49:31;10.30;93.60
26304;DHT22;70693;48.680;8.890;2024-01-30T04:51:57;10.30;93.60
26304;DHT22;70693;48.680;8.890;2024-01-30T04:54:23;10.30;93.60
26304;DHT22;70693;48.680;8.890;2024-01-30T04:56:48;10.30;93.70
26304;DHT22;70693;48.680;8.890;2024-01-30T04:59:14;10.30;93.70
26304;DHT22;70693;48.680;8.890;2024-01-30T05:01:40;10.30;93.70
26304;DHT22;70693;48.680;8.890;2024-01-30T05:04:08;10.30;93.70
26304;DHT22;70693;48.680;8.890;2024-01-30T05:06:34;10.20;93.70
26304;DHT22;70693;48.680;8.890;2024-01-30T05:09:00;10.20;93.70
26304;DHT22;70693;48.680;8.890;2024-01-30T05:11:25;10.20;93.80
26304;DHT22;70693;48.680;8.890;2024-01-30T05:13:51;10.20;93.80
26304;DHT22;70693;48.680;8.890;2024-01-30T05:16:16;10.20;93.80
26304;DHT22;70693;48.680;8.890;2024-01-30T05:18:42;10.20;93.90
26304;DHT22;70693;48.680;8.890;2024-01-30T05:21:07;10.10;93.80
26304;DHT22;70693;48.680;8.890;2024-01-30T05:23:34;10.20;93.90
26304;DHT22;70693;48.680;8.890;2024-01-30T05:25:59;10.20;93.90
26304;DHT22;70693;48.680;8.890;2024-01-30T05:28:26;10.10;93.90
26304;DHT22;70693;48.680;8.890;2024-01-30T05:30:52;10.10;93.90
26304;DHT22;70693;48.680;8.890;2024-01-30T05:33:17;10.10;93.90
26304;DHT22;70693;48.680;8.890;2024-01-30T05:35:43;10.10;93.90
26304;DHT22;70693;48.680;8.890;2024-01-30T05:38:09;10.10;93.90
26304;DHT22;70693;48.680;8.890;2024-01-30T05:40:34;10.10;93.90
26304;DHT22;70693;48.680;8.890;2024-01-30T05:43:00;10.10;94.00
26304;DHT22;70693;48.680;8.890;2024-01-30T05:45:27;10.00;93.90
26304;DHT22;70693;48.680;8.890;2024-01-30T05:47:53;10.00;94.00
26304;DHT22;70693;48.680;8.890;2024-01-30T05:50:19;10.00;94.00
26304;DHT22;70693;48.680;8.890;2024-01-30T05:52:45;10.00;94.00
26304;DHT22;70693;48.680;8.890;2024-01-30T05:55:11;10.00;94.00
26304;DHT22;70693;48.680;8.890;2024-01-30T05:57:37;10.00;94.00
26304;DHT22;70693;48.680;8.890;2024-01-30T06:00:04;10.00;94.00
26304;DHT22;70693;48.680;8.890;2024-01-30T06:02:30;10.00;94.10
26304;DHT22;70693;48.680;8.890;2024-01-30T06:04:56;10.00;94.10
26304;DHT22;70693;48.680;8.890;2024-01-30T06:07:22;9.90;94.40
26304;DHT22;70693;48.680;8.890;2024-01-30T06:09:47;10.00;94.30
26304;DHT22;70693;48.680;8.890;2024-01-30T06:12:13;9.90;94.10
26304;DHT22;70693;48.680;8.890;2024-01-30T06:14:39;9.90;94.10
26304;DHT22;70693;48.680;8.890;2024-01-30T06:17:05;9.90;94.10
26304;DHT22;70693;48.680;8.890;2024-01-30T06:19:31;9.90;94.10
26304;DHT22;70693;48.680;8.890;2024-01-30T06:21:57;9.90;94.20
26304;DHT22;70693;48.680;8.890;2024-01-30T06:24:22;9.90;94.20
26304;DHT22;70693;48.680;8.890;2024-01-30T06:26:48;9.90;94.20
26304;DHT22;70693;48.680;8.890;2024-01-30T06:29:14;9.90;94.20
26304;DHT22;70693;48.680;8.890;2024-01-30T06:31:43;9.90;94.20
26304;DHT22;70693;48.680;8.890;2024-01-30T06:34:09;9.90;94.20
26304;DHT22;70693;48.680;8.890;2024-01-30T06:36:36;9.90;94.20
26304;DHT22;70693;48.680;8.890;2024-01-30T06:39:02;9.90;94.30
26304;DHT22;70693;48.680;8.890;2024-01-30T06:41:28;9.80;94.20
26304;DHT22;70693;48.680;8.890;2024-01-30T06:43:54;9.80;94.20
26304;DHT22;70693;48.680;8.890;2024-01-30T06:46:19;9.80;94.30
26304;DHT22;70693;48.680;8.890;2024-01-30T06:48:45;9.80;94.30
26304;DHT22;70693;48.680;8.890;2024-01-30T06:51:11;9.80;94.30
26304;DHT22;70693;48.680;8.890;2024-01-30T06:53:37;9.80;94.30
26304;DHT22;70693;48.680;8.890;2024-01-30T06:56:03;9.80;94.30
26304;DHT22;70693;48.680;8.890;2024-01-30T06:58:29;9.80;94.40
26304;DHT22;70693;48.680;8.890;2024-01-30T07:00:55;9.80;94.40
26304;DHT22;70693;48.680;8.890;2024-01-30T07:03:21;9.70;94.50
26304;DHT22;70693;48.680;8.890;2024-01-30T07:05:47;9.80;94.50
26304;DHT22;70693;48.680;8.890;2024-01-30T07:08:12;9.80;94.90
26304;DHT22;70693;48.680;8.890;2024-01-30T07:10:38;9.80;94.60
26304;DHT22;70693;48.680;8.890;2024-01-30T07:13:04;9.80;94.60
26304;DHT22;70693;48.680;8.890;2024-01-30T07:15:31;9.80;94.60
26304;DHT22;70693;48.680;8.890;2024-01-30T07:17:56;9.80;94.70
26304;DHT22;70693;48.680;8.890;2024-01-30T07:20:22;9.90;94.70
26304;DHT22;70693;48.680;8.890;2024-01-30T07:22:48;9.90;94.60
26304;DHT22;70693;48.680;8.890;2024-01-30T07:25:13;9.90;94.60
26304;DHT22;70693;48.680;8.890;2024-01-30T07:27:39;10.00;94.60
26304;DHT22;70693;48.680;8.890;2024-01-30T07:30:05;10.10;94.60
26304;DHT22;70693;48.680;8.890;2024-01-30T07:32:31;10.10;94.60
26304;DHT22;70693;48.680;8.890;2024-01-30T07:34:57;10.10;94.50
26304;DHT22;70693;48.680;8.890;2024-01-30T07:37:23;10.20;94.50
26304;DHT22;70693;48.680;8.890;2024-01-30T07:39:48;10.30;94.40
26304;DHT22;70693;48.680;8.890;2024-01-30T07:42:14;10.30;94.30
26304;DHT22;70693;48.680;8.890;2024-01-30T07:44:40;10.40;94.30
26304;DHT22;70693;48.680;8.890;2024-01-30T07:47:05;10.40;94.20
26304;DHT22;70693;48.680;8.890;2024-01-30T07:49:32;10.50;94.10
26304;DHT22;70693;48.680;8.890;2024-01-30T07:51:57;10.60;94.10
26304;DHT22;70693;48.680;8.890;2024-01-30T07:54:23;10.60;94.00
26304;DHT22;70693;48.680;8.890;2024-01-30T07:56:49;10.80;93.90
26304;DHT22;70693;48.680;8.890;2024-01-30T07:59:15;10.80;93.80
26304;DHT22;70693;48.680;8.890;2024-01-30T08:01:41;10.90;93.70
26304;DHT22;70693;48.680;8.890;2024-01-30T08:04:06;11.00;93.70
26304;DHT22;70693;48.680;8.890;2024-01-30T08:06:32;11.00;93.60
26304;DHT22;70693;48.680;8.890;2024-01-30T08:08:58;11.10;93.50
26304;DHT22;70693;48.680;8.890;2024-01-30T08:11:24;11.20;93.40
26304;DHT22;70693;48.680;8.890;2024-01-30T08:13:55;11.20;93.30
26304;DHT22;70693;48.680;8.890;2024-01-30T08:16:20;11.40;93.30
26304;DHT22;70693;48.680;8.890;2024-01-30T08:18:46;11.40;93.20
26304;DHT22;70693;48.680;8.890;2024-01-30T08:21:12;11.50;93.10
26304;DHT22;70693;48.680;8.890;2024-01-30T08:23:40;11.50;93.00
26304;DHT22;70693;48.680;8.890;2024-01-30T08:26:05;11.70;92.90
26304;DHT22;70693;48.680;8.890;2024-01-30T08:28:31;11.70;92.80
26304;DHT22;70693;48.680;8.890;2024-01-30T08:30:58;11.80;92.70
26304;DHT22;70693;48.680;8.890;2024-01-30T08:33:24;11.90;92.70
26304;DHT22;70693;48.680;8.890;2024-01-30T08:35:50;11.90;92.60
26304;DHT22;70693;48.680;8.890;2024-01-30T08:38:15;12.00;92.50
26304;DHT22;70693;48.680;8.890;2024-01-30T08:40:41;12.00;92.40
26304;DHT22;70693;48.680;8.890;2024-01-30T08:43:06;12.10;92.30
26304;DHT22;70693;48.680;8.890;2024-01-30T08:45:33;12.20;92.20
26304;DHT22;70693;48.680;8.890;2024-01-30T08:47:59;12.30;92.10
26304;DHT22;70693;48.680;8.890;2024-01-30T08:50:24;12.30;92.00
26304;DHT22;70693;48.680;8.890;2024-01-30T08:52:50;12.40;92.00
26304;DHT22;70693;48.680;8.890;2024-01-30T08:55:16;12.50;91.90
26304;DHT22;70693;48.680;8.890;2024-01-30T08:57:41;12.50;91.80
26304;DHT22;70693;48.680;8.890;2024-01-30T09:00:07;12.60;91.70
26304;DHT22;70693;48.680;8.890;2024-01-30T09:02:34;12.70;91.70
26304;DHT22;70693;48.680;8.890;2024-01-30T09:05:00;12.80;91.60
26304;DHT22;70693;48.680;8.890;2024-01-30T09:07:26;12.80;91.50
26304;DHT22;70693;48.680;8.890;2024-01-30T09:09:51;12.90;91.40
26304;DHT22;70693;48.680;8.890;2024-01-30T09:12:17;13.00;91.40
26304;DHT22;70693;48.680;8.890;2024-01-30T09:14:43;13.10;90.90
26304;DHT22;70693;48.680;8.890;2024-01-30T09:17:08;13.10;90.50
26304;DHT22;70693;48.680;8.890;2024-01-30T09:19:34;13.10;90.40
26304;DHT22;70693;48.680;8.890;2024-01-30T09:22:00;13.20;90.30
26304;DHT22;70693;48.680;8.890;2024-01-30T09:24:26;13.20;90.30
26304;DHT22;70693;48.680;8.890;2024-01-30T09:26:52;13.30;90.30
26304;DHT22;70693;48.680;8.890;2024-01-30T09:29:18;13.30;90.20
26304;DHT22;70693;48.680;8.890;2024-01-30T09:31:45;13.40;90.20
26304;DHT22;70693;48.680;8.890;2024-01-30T09:34:11;13.50;90.10
26304;DHT22;70693;48.680;8.890;2024-01-30T09:36:36;13.50;90.10
26304;DHT22;70693;48.680;8.890;2024-01-30T09:39:02;13.60;90.00
26304;DHT22;70693;48.680;8.890;2024-01-30T09:41:30;13.60;89.90
26304;DHT22;70693;48.680;8.890;2024-01-30T09:43:57;13.70;89.80
26304;DHT22;70693;48.680;8.890;2024-01-30T09:46:26;13.70;89.70
26304;DHT22;70693;48.680;8.890;2024-01-30T09:48:55;13.80;89.50
26304;DHT22;70693;48.680;8.890;2024-01-30T09:51:23;13.80;89.40
26304;DHT22;70693;48.680;8.890;2024-01-30T09:53:49;13.90;89.30
26304;DHT22;70693;48.680;8.890;2024-01-30T09:56:16;13.90;89.20
26304;DHT22;70693;48.680;8.890;2024-01-30T09:58:42;13.90;89.10
26304;DHT22;70693;48.680;8.890;2024-01-30T10:01:08;13.90;89.00
26304;DHT22;70693;48.680;8.890;2024-01-30T10:03:33;14.00;88.90
26304;DHT22;70693;48.680;8.890;2024-01-30T10:06:00;14.00;88.80
26304;DHT22;70693;48.680;8.890;2024-01-30T10:08:26;14.10;88.80
26304;DHT22;70693;48.680;8.890;2024-01-30T10:10:52;14.10;88.70
26304;DHT22;70693;48.680;8.890;2024-01-30T10:13:18;14.10;88.50
26304;DHT22;70693;48.680;8.890;2024-01-30T10:15:44;14.10;88.50
26304;DHT22;70693;48.680;8.890;2024-01-30T10:18:10;14.10;88.40
26304;DHT22;70693;48.680;8.890;2024-01-30T10:20:37;14.20;88.40
26304;DHT22;70693;48.680;8.890;2024-01-30T10:23:03;14.20;88.40
26304;DHT22;70693;48.680;8.890;2024-01-30T10:25:30;14.20;88.40
26304;DHT22;70693;48.680;8.890;2024-01-30T10:27:56;14.20;88.40
26304;DHT22;70693;48.680;8.890;2024-01-30T10:30:23;14.20;88.30
26304;DHT22;70693;48.680;8.890;2024-01-30T10:32:49;14.20;88.30
26304;DHT22;70693;48.680;8.890;2024-01-30T10:35:15;14.20;88.20
26304;DHT22;70693;48.680;8.890;2024-01-30T10:37:43;14.30;88.20
26304;DHT22;70693;48.680;8.890;2024-01-30T10:40:13;14.30;88.20
26304;DHT22;70693;48.680;8.890;2024-01-30T10:42:44;14.30;88.20
26304;DHT22;70693;48.680;8.890;2024-01-30T10:45:13;14.40;89.00
26304;DHT22;70693;48.680;8.890;2024-01-30T10:47:44;14.40;88.20
26304;DHT22;70693;48.680;8.890;2024-01-30T10:50:12;14.40;88.20
26304;DHT22;70693;48.680;8.890;2024-01-30T10:52:39;14.40;88.10
26304;DHT22;70693;48.680;8.890;2024-01-30T10:55:07;14.40;88.00
26304;DHT22;70693;48.680;8.890;2024-01-30T10:57:37;14.50;88.00
26304;DHT22;70693;48.680;8.890;2024-01-30T11:00:13;14.50;88.00
26304;DHT22;70693;48.680;8.890;2024-01-30T11:02:43;14.50;87.80
26304;DHT22;70693;48.680;8.890;2024-01-30T11:05:09;14.60;87.80
26304;DHT22;70693;48.680;8.890;2024-01-30T11:07:35;14.60;87.70
26304;DHT22;70693;48.680;8.890;2024-01-30T11:10:04;14.70;87.60
26304;DHT22;70693;48.680;8.890;2024-01-30T11:12:32;14.70;87.50
26304;DHT22;70693;48.680;8.890;2024-01-30T11:15:07;14.70;87.40
26304;DHT22;70693;48.680;8.890;2024-01-30T11:20:25;14.80;87.20
26304;DHT22;70693;48.680;8.890;2024-01-30T11:22:53;14.80;87.10
26304;DHT22;70693;48.680;8.890;2024-01-30T11:25:21;14.90;87.10
26304;DHT22;70693;48.680;8.890;2024-01-30T11:27:47;14.90;87.00
26304;DHT22;70693;48.680;8.890;2024-01-30T11:30:27;14.90;86.90
26304;DHT22;70693;48.680;8.890;2024-01-30T11:33:03;14.90;86.70
26304;DHT22;70693;48.680;8.890;2024-01-30T11:35:34;15.00;86.70
26304;DHT22;70693;48.680;8.890;2024-01-30T11:38:00;15.00;86.70
26304;DHT22;70693;48.680;8.890;2024-01-30T11:40:30;15.00;86.60
26304;DHT22;70693;48.680;8.890;2024-01-30T11:42:58;15.00;86.50
26304;DHT22;70693;48.680;8.890;2024-01-30T11:45:24;15.00;86.40
26304;DHT22;70693;48.680;8.890;2024-01-30T11:47:50;15.10;86.40
26304;DHT22;70693;48.680;8.890;2024-01-30T11:50:16;15.10;86.40
26304;DHT22;70693;48.680;8.890;2024-01-30T11:52:42;15.10;86.30
26304;DHT22;70693;48.680;8.890;2024-01-30T11:55:09;15.10;86.30
26304;DHT22;70693;48.680;8.890;2024-01-30T11:57:35;15.10;86.30
26304;DHT22;70693;48.680;8.890;2024-01-30T12:00:05;15.10;86.20
26304;DHT22;70693;48.680;8.890;2024-01-30T12:02:40;15.10;86.20
26304;DHT22;70693;48.680;8.890;2024-01-30T12:05:06;15.10;86.20
26304;DHT22;70693;48.680;8.890;2024-01-30T12:07:35;15.10;86.10
26304;DHT22;70693;48.680;8.890;2024-01-30T12:10:01;15.20;86.20
26304;DHT22;70693;48.680;8.890;2024-01-30T12:12:28;15.20;86.10
26304;DHT22;70693;48.680;8.890;2024-01-30T12:14:55;15.20;86.10
26304;DHT22;70693;48.680;8.890;2024-01-30T12:17:31;15.20;86.10
26304;DHT22;70693;48.680;8.890;2024-01-30T12:20:07;15.20;86.00
26304;DHT22;70693;48.680;8.890;2024-01-30T12:22:37;15.30;86.00
26304;DHT22;70693;48.680;8.890;2024-01-30T12:25:08;15.20;86.00
26304;DHT22;70693;48.680;8.890;2024-01-30T12:27:34;15.30;86.00
26304;DHT22;70693;48.680;8.890;2024-01-30T12:30:00;15.30;85.90
26304;DHT22;70693;48.680;8.890;2024-01-30T12:32:26;15.30;85.90
26304;DHT22;70693;48.680;8.890;2024-01-30T12:34:55;15.30;85.80
26304;DHT22;70693;48.680;8.890;2024-01-30T12:37:21;15.30;85.80
26304;DHT22;70693;48.680;8.890;2024-01-30T12:39:48;15.30;85.70
26304;DHT22;70693;48.680;8.890;2024-01-30T12:42:14;15.30;85.70
26304;DHT22;70693;48.680;8.890;2024-01-30T12:44:41;15.30;85.90
26304;DHT22;70693;48.680;8.890;2024-01-30T12:47:09;15.30;86.00
26304;DHT22;70693;48.680;8.890;2024-01-30T12:49:35;15.40;86.00
26304;DHT22;70693;48.680;8.890;2024-01-30T12:52:00;15.50;86.00
26304;DHT22;70693;48.680;8.890;2024-01-30T12:54:26;15.50;86.00
26304;DHT22;70693;48.680;8.890;2024-01-30T12:56:52;15.60;86.10
26304;DHT22;70693;48.680;8.890;2024-01-30T12:59:17;15.60;86.20
26304;DHT22;70693;48.680;8.890;2024-01-30T13:01:43;15.70;86.40
26304;DHT22;70693;48.680;8.890;2024-01-30T13:04:09;15.70;86.60
26304;DHT22;70693;48.680;8.890;2024-01-30T13:06:35;15.80;86.70
26304;DHT22;70693;48.680;8.890;2024-01-30T13:09:00;15.80;86.80
26304;DHT22;70693;48.680;8.890;2024-01-30T13:11:26;15.80;86.90
26304;DHT22;70693;48.680;8.890;2024-01-30T13:13:51;15.90;87.00
26304;DHT22;70693;48.680;8.890;2024-01-30T13:16:17;16.00;87.00
26304;DHT22;70693;48.680;8.890;2024-01-30T13:18:44;16.10;86.90
26304;DHT22;70693;48.680;8.890;2024-01-30T13:21:09;16.10;86.90
26304;DHT22;70693;48.680;8.890;2024-01-30T13:23:35;16.20;87.00
26304;DHT22;70693;48.680;8.890;2024-01-30T13:26:01;16.20;87.00
26304;DHT22;70693;48.680;8.890;2024-01-30T13:28:26;16.20;86.90
26304;DHT22;70693;48.680;8.890;2024-01-30T13:30:52;16.30;86.90
26304;DHT22;70693;48.680;8.890;2024-01-30T13:33:19;16.40;86.90
26304;DHT22;70693;48.680;8.890;2024-01-30T13:35:44;16.40;86.90
26304;DHT22;70693;48.680;8.890;2024-01-30T13:38:10;16.40;86.90
26304;DHT22;70693;48.680;8.890;2024-01-30T13:40:36;16.40;86.90
26304;DHT22;70693;48.680;8.890;2024-01-30T13:43:01;16.50;87.00
26304;DHT22;70693;48.680;8.890;2024-01-30T13:45:27;16.50;87.00
26304;DHT22;70693;48.680;8.890;2024-01-30T13:47:53;16.50;87.00
26304;DHT22;70693;48.680;8.890;2024-01-30T13:50:18;16.60;87.00
26304;DHT22;70693;48.680;8.890;2024-01-30T13:52:44;16.60;86.90
26304;DHT22;70693;48.680;8.890;2024-01-30T13:55:10;16.60;86.90
26304;DHT22;70693;48.680;8.890;2024-01-30T13:57:36;16.60;86.90
26304;DHT22;70693;48.680;8.890;2024-01-30T14:00:04;16.70;86.90
26304;DHT22;70693;48.680;8.890;2024-01-30T14:02:32;16.70;86.80
26304;DHT22;70693;48.680;8.890;2024-01-30T14:04:58;16.70;86.80
26304;DHT22;70693;48.680;8.890;2024-01-30T14:07:24;16.70;86.80
26304;DHT22;70693;48.680;8.890;2024-01-30T14:09:49;16.70;86.80
26304;DHT22;70693;48.680;8.890;2024-01-30T14:12:15;16.70;86.80
26304;DHT22;70693;48.680;8.890;2024-01-30T14:14:41;16.70;86.80
26304;DHT22;70693;48.680;8.890;2024-01-30T14:17:07;16.80;86.90
26304;DHT22;70693;48.680;8.890;2024-01-30T14:19:34;16.70;86.80
26304;DHT22;70693;48.680;8.890;2024-01-30T14:21:59;16.80;86.90
26304;DHT22;70693;48.680;8.890;2024-01-30T14:24:25;16.70;86.90
26304;DHT22;70693;48.680;8.890;2024-01-30T14:26:52;16.70;86.80
26304;DHT22;70693;48.680;8.890;2024-01-30T14:29:17;16.80;87.00
26304;DHT22;70693;48.680;8.890;2024-01-30T14:31:43;16.80;87.00
26304;DHT22;70693;48.680;8.890;2024-01-30T14:34:09;16.80;87.00
26304;DHT22;70693;48.680;8.890;2024-01-30T14:36:36;16.80;87.00
26304;DHT22;70693;48.680;8.890;2024-01-30T14:39:02;16.80;87.00
26304;DHT22;70693;48.680;8.890;2024-01-30T14:41:29;16.80;87.00
26304;DHT22;70693;48.680;8.890;2024-01-30T14:43:54;16.70;87.00
26304;DHT22;70693;48.680;8.890;2024-01-30T14:46:21;16.80;87.00
26304;DHT22;70693;48.680;8.890;2024-01-30T14:48:47;16.70;87.00
26304;DHT22;70693;48.680;8.890;2024-01-30T14:51:13;16.70;87.00
26304;DHT22;70693;48.680;8.890;2024-01-30T14:53:39;16.70;87.00
26304;DHT22;70693;48.680;8.890;2024-01-30T14:56:05;16.70;87.00
26304;DHT22;70693;48.680;8.890;2024-01-30T14:58:31;16.70;87.00
26304;DHT22;70693;48.680;8.890;2024-01-30T15:00:57;16.70;87.00
26304;DHT22;70693;48.680;8.890;2024-01-30T15:03:22;16.70;87.00
26304;DHT22;70693;48.680;8.890;2024-01-30T15:05:48;16.70;87.10
26304;DHT22;70693;48.680;8.890;2024-01-30T15:08:14;16.70;87.20
26304;DHT22;70693;48.680;8.890;2024-01-30T15:10:39;16.70;87.20
26304;DHT22;70693;48.680;8.890;2024-01-30T15:13:05;16.60;87.10
26304;DHT22;70693;48.680;8.890;2024-01-30T15:15:31;16.60;87.20
26304;DHT22;70693;48.680;8.890;2024-01-30T15:17:57;16.60;87.30
26304;DHT22;70693;48.680;8.890;2024-01-30T15:20:23;16.60;87.30
26304;DHT22;70693;48.680;8.890;2024-01-30T15:22:49;16.60;87.30
26304;DHT22;70693;48.680;8.890;2024-01-30T15:25:15;16.50;87.40
26304;DHT22;70693;48.680;8.890;2024-01-30T15:27:41;16.50;87.40
26304;DHT22;70693;48.680;8.890;2024-01-30T15:30:07;16.50;87.50